Time;durP1;ratioP1;P1;durP2;ratioP2;P2;SDS_P1;SDS_P2;PMS_P1;PMS_P2;Temp;Humidity;BMP_temperature;BMP_pressure;BME280_temperature;BME280_humidity;BME280_pressure;Samples;Min_cycle;Max_cycle;Signal;HPM_P1;HPM_P2
2022/01/05 00:02:21;;;;;;;4.63;2.90;;;;;;;10.26;95.02;98488.00;5044316;28;20541;-84
2022/01/05 00:04:47;;;;;;;4.00;2.67;;;;;;;10.27;94.98;98483.97;5045366;28;20156;-84
2022/01/05 00:07:13;;;;;;;3.78;2.55;;;;;;;10.26;94.82;98482.47;5049550;28;20039;-84
2022/01/05 00:09:38;;;;;;;4.38;2.45;;;;;;;10.32;94.81;98484.56;5034102;28;20033;-84
2022/01/05 00:12:04;;;;;;;3.42;2.50;;;;;;;10.20;94.99;98473.25;5032771;28;20031;-85
2022/01/05 00:14:30;;;;;;;4.45;2.50;;;;;;;10.27;95.00;98483.97;5032538;28;20151;-83
2022/01/05 00:16:55;;;;;;;4.00;2.65;;;;;;;10.27;94.94;98472.88;5036881;28;20494;-84
2022/01/05 00:19:21;;;;;;;4.68;3.03;;;;;;;10.32;94.88;98474.25;5048907;28;20490;-84
2022/01/05 00:21:48;;;;;;;3.20;2.40;;;;;;;10.31;94.89;98474.72;5025673;28;20488;-85
2022/01/05 00:24:13;;;;;;;4.93;2.67;;;;;;;10.29;95.11;98470.41;5040449;28;20123;-84
2022/01/05 00:26:39;;;;;;;3.72;2.50;;;;;;;10.27;95.12;98461.78;5035729;28;20060;-84
2022/01/05 00:29:05;;;;;;;4.10;2.42;;;;;;;10.27;95.28;98461.06;5041609;28;20490;-84
2022/01/05 00:31:30;;;;;;;4.45;2.80;;;;;;;10.28;95.34;98468.88;5038656;28;20515;-84
2022/01/05 00:33:55;;;;;;;4.65;2.58;;;;;;;10.23;95.25;98460.47;5049537;28;20041;-84
2022/01/05 00:36:21;;;;;;;4.45;2.40;;;;;;;10.25;95.71;98461.50;5039604;28;20433;-84
2022/01/05 00:38:47;;;;;;;3.58;2.45;;;;;;;10.33;95.05;98459.16;5039749;28;20025;-85
2022/01/05 00:41:13;;;;;;;3.80;2.45;;;;;;;10.37;95.15;98470.81;5045790;28;20478;-84
2022/01/05 00:43:39;;;;;;;4.00;2.83;;;;;;;10.40;95.20;98458.00;5032541;28;20394;-84
2022/01/05 00:46:05;;;;;;;3.58;2.47;;;;;;;10.40;95.08;98458.00;5045359;28;20379;-84
2022/01/05 00:48:32;;;;;;;3.58;2.28;;;;;;;10.43;95.01;98462.63;5039619;28;20124;-84
2022/01/05 00:51:00;;;;;;;3.22;2.33;;;;;;;10.41;94.86;98463.09;5034182;28;20116;-84
2022/01/05 00:53:26;;;;;;;6.20;2.53;;;;;;;10.35;94.89;98448.38;5046584;28;20112;-84
2022/01/05 00:55:52;;;;;;;3.40;2.28;;;;;;;10.42;94.83;98461.09;5030099;28;20136;-82
2022/01/05 00:58:17;;;;;;;4.22;2.42;;;;;;;10.37;94.92;98445.88;5049452;28;20533;-82
2022/01/05 01:00:43;;;;;;;3.70;2.40;;;;;;;10.32;95.24;98445.75;5041111;28;20057;-82
2022/01/05 01:03:08;;;;;;;4.30;2.35;;;;;;;10.34;95.05;98457.16;5040774;28;20034;-82
2022/01/05 01:05:34;;;;;;;5.10;2.40;;;;;;;10.26;95.51;98449.19;5035790;28;20032;-82
2022/01/05 01:07:59;;;;;;;4.68;2.40;;;;;;;10.23;95.47;98457.69;5046081;28;20398;-82
2022/01/05 01:10:25;;;;;;;3.28;2.15;;;;;;;10.14;96.01;98444.63;5040836;28;20029;-81
2022/01/05 01:12:50;;;;;;;4.10;2.40;;;;;;;10.09;96.35;98444.50;5031920;28;20033;-84
2022/01/05 01:15:16;;;;;;;3.60;2.30;;;;;;;10.14;95.99;98441.88;5046988;28;20060;-81
2022/01/05 01:17:42;;;;;;;3.17;2.25;;;;;;;10.10;96.17;98441.28;5046985;28;20032;-82
2022/01/05 01:20:10;;;;;;;3.92;2.50;;;;;;;10.11;95.83;98448.34;5046225;28;20040;-82
2022/01/05 01:22:36;;;;;;;3.88;2.45;;;;;;;10.11;96.09;98439.28;5036812;28;20442;-82
2022/01/05 01:25:03;;;;;;;3.40;2.40;;;;;;;10.11;96.03;98428.19;5033909;28;20037;-82
2022/01/05 01:27:31;;;;;;;3.78;2.47;;;;;;;10.04;96.24;98417.44;5029925;28;20398;-82
2022/01/05 01:29:56;;;;;;;4.15;2.50;;;;;;;10.00;96.54;98420.41;5037656;28;20032;-82
2022/01/05 01:32:22;;;;;;;4.53;2.47;;;;;;;9.95;96.67;98414.75;5035228;28;20030;-82
2022/01/05 01:34:47;;;;;;;4.18;2.47;;;;;;;9.90;96.73;98407.88;5042793;28;20041;-82
2022/01/05 01:37:13;;;;;;;4.05;2.40;;;;;;;9.98;96.42;98422.91;5043069;28;20025;-82
2022/01/05 01:39:39;;;;;;;4.35;2.75;;;;;;;10.00;96.36;98420.41;5029809;28;20525;-82
2022/01/05 01:42:04;;;;;;;4.22;2.47;;;;;;;9.95;96.29;98401.66;5031520;28;20492;-82
2022/01/05 01:44:30;;;;;;;4.15;2.40;;;;;;;9.93;96.57;98418.00;5052231;28;20560;-82
2022/01/05 01:46:56;;;;;;;4.38;2.30;;;;;;;9.93;96.81;98412.47;5045979;28;20117;-82
2022/01/05 01:49:21;;;;;;;2.80;2.33;;;;;;;9.93;96.55;98404.16;5042492;28;20033;-82
2022/01/05 01:51:47;;;;;;;5.53;2.80;;;;;;;9.97;96.47;98415.81;5029836;28;20084;-81
2022/01/05 01:54:13;;;;;;;3.20;2.40;;;;;;;9.93;96.58;98415.22;5037932;28;20130;-82
2022/01/05 01:56:39;;;;;;;3.28;2.25;;;;;;;9.93;96.67;98417.22;5046767;28;20029;-82
2022/01/05 01:59:05;;;;;;;5.68;2.45;;;;;;;9.96;96.61;98414.28;5033390;28;20380;-82
2022/01/05 02:01:31;;;;;;;5.25;2.60;;;;;;;10.01;96.27;98413.63;5030750;28;20116;-82
2022/01/05 02:03:57;;;;;;;3.75;2.47;;;;;;;10.01;95.97;98404.56;5035816;28;20033;-82
2022/01/05 02:06:22;;;;;;;3.83;2.40;;;;;;;9.99;96.12;98401.50;5048412;28;20115;-82
2022/01/05 02:08:49;;;;;;;4.88;2.65;;;;;;;9.98;95.96;98400.75;5035132;28;20076;-84
2022/01/05 02:11:14;;;;;;;4.05;2.30;;;;;;;9.94;96.18;98394.59;5034935;28;20126;-84
2022/01/05 02:13:40;;;;;;;3.75;2.70;;;;;;;9.97;96.24;98404.72;5036762;28;21631;-84
2022/01/05 02:16:07;;;;;;;4.18;2.45;;;;;;;10.00;96.04;98398.25;5029229;28;20037;-84
2022/01/05 02:21:03;;;;;;;3.58;2.50;;;;;;;10.03;95.62;98402.84;5043815;28;20056;-84
2022/01/05 02:23:28;;;;;;;3.35;2.30;;;;;;;9.96;95.92;98385.81;5029661;28;20499;-84
2022/01/05 02:25:54;;;;;;;4.05;2.42;;;;;;;10.06;96.06;98390.06;5029118;28;20030;-84
2022/01/05 02:28:20;;;;;;;3.95;2.47;;;;;;;10.03;95.88;98388.97;5015182;28;20103;-84
2022/01/05 02:30:50;;;;;;;4.63;2.47;;;;;;;10.00;96.30;98384.41;5048057;28;20029;-84
2022/01/05 02:33:16;;;;;;;3.45;2.45;;;;;;;10.00;96.46;98389.94;5036705;28;20045;-84
2022/01/05 02:35:41;;;;;;;3.38;2.28;;;;;;;9.86;96.92;98357.44;5039570;28;20112;-84
2022/01/05 02:38:07;;;;;;;3.97;2.35;;;;;;;9.89;97.11;98370.31;5051730;28;20542;-84
2022/01/05 02:40:32;;;;;;;4.53;2.40;;;;;;;9.89;96.90;98369.56;5032694;28;20489;-84
2022/01/05 02:42:58;;;;;;;4.38;2.70;;;;;;;9.91;96.92;98365.06;5041042;28;20040;-84
2022/01/05 02:45:24;;;;;;;4.07;2.55;;;;;;;9.90;97.08;98371.09;5047540;28;20049;-84
2022/01/05 02:47:50;;;;;;;5.03;2.60;;;;;;;9.85;97.07;98366.97;5038475;28;20040;-84
2022/01/05 02:50:15;;;;;;;6.50;2.83;;;;;;;9.86;97.47;98362.97;5035534;28;20399;-82
2022/01/05 02:52:42;;;;;;;3.85;2.65;;;;;;;9.81;97.64;98358.06;5030916;28;20041;-82
2022/01/05 02:55:08;;;;;;;4.53;2.80;;;;;;;9.84;97.29;98363.44;5036009;28;20037;-82
2022/01/05 02:57:34;;;;;;;4.15;2.50;;;;;;;9.83;97.53;98366.66;5044944;28;20036;-82
2022/01/05 03:00:00;;;;;;;4.38;2.83;;;;;;;9.85;97.39;98366.97;5051107;28;20401;-82
2022/01/05 03:02:25;;;;;;;3.90;2.65;;;;;;;9.88;97.55;98362.47;5050473;28;20075;-82
2022/01/05 03:04:53;;;;;;;4.95;2.58;;;;;;;9.90;97.05;98360.78;5014015;28;20036;-82
2022/01/05 03:07:19;;;;;;;4.68;2.67;;;;;;;9.87;97.00;98360.97;5043369;28;20037;-84
2022/01/05 03:09:44;;;;;;;4.47;2.40;;;;;;;9.95;96.76;98368.41;5038083;28;20041;-84
2022/01/05 03:12:11;;;;;;;3.38;2.40;;;;;;;9.97;96.77;98368.72;5039090;28;20499;-84
2022/01/05 03:14:37;;;;;;;4.15;2.50;;;;;;;10.02;96.60;98365.31;5033214;28;20068;-84
2022/01/05 03:17:03;;;;;;;4.13;2.55;;;;;;;10.04;96.34;98354.50;5026166;28;20052;-84
2022/01/05 03:19:28;;;;;;;4.82;2.45;;;;;;;10.09;96.16;98351.09;5048879;28;20025;-84
2022/01/05 03:21:54;;;;;;;3.47;2.42;;;;;;;10.09;96.41;98358.63;5038444;28;20050;-84
2022/01/05 03:24:20;;;;;;;4.65;2.53;;;;;;;10.08;96.02;98344.00;5044584;28;20064;-84
2022/01/05 03:26:45;;;;;;;6.18;2.70;;;;;;;10.14;95.84;98335.81;5042629;28;20032;-84
2022/01/05 03:29:11;;;;;;;5.18;3.00;;;;;;;10.15;95.54;98343.66;5041631;28;20037;-82
2022/01/05 03:31:36;;;;;;;3.90;2.50;;;;;;;10.16;95.81;98345.19;5048836;28;20108;-82
2022/01/05 03:34:04;;;;;;;4.68;2.42;;;;;;;10.15;95.89;98349.22;5046079;28;20034;-82
2022/01/05 03:36:30;;;;;;;4.75;2.85;;;;;;;10.19;95.68;98349.78;5034631;28;20026;-82
2022/01/05 03:38:55;;;;;;;4.15;2.60;;;;;;;10.18;95.83;98351.06;5031169;28;20392;-82
2022/01/05 03:41:21;;;;;;;4.40;2.70;;;;;;;10.16;95.72;98339.66;5043354;28;20037;-82
2022/01/05 03:43:47;;;;;;;4.95;2.70;;;;;;;10.21;95.53;98350.09;5040880;28;20040;-82
2022/01/05 03:46:13;;;;;;;4.95;3.00;;;;;;;10.22;95.82;98340.56;5050645;28;20037;-82
2022/01/05 03:48:39;;;;;;;4.50;2.60;;;;;;;10.20;95.59;98340.25;5040909;28;20120;-84
2022/01/05 03:51:04;;;;;;;4.32;2.85;;;;;;;10.22;95.77;98343.31;5043307;28;20116;-84
2022/01/05 03:53:30;;;;;;;3.25;2.38;;;;;;;10.19;95.65;98344.25;5033042;28;20043;-84
2022/01/05 03:55:55;;;;;;;3.63;2.75;;;;;;;10.18;95.93;98342.75;5047515;28;20036;-84
2022/01/05 03:58:20;;;;;;;5.05;3.00;;;;;;;10.14;96.19;98336.59;5033575;28;20125;-84
2022/01/05 04:00:48;;;;;;;4.53;2.70;;;;;;;10.09;96.14;98339.25;5049276;28;20063;-84
2022/01/05 04:03:15;;;;;;;5.40;2.80;;;;;;;10.05;96.19;98331.13;5014394;28;20034;-82
2022/01/05 04:05:41;;;;;;;5.32;2.72;;;;;;;10.10;96.12;98335.22;5043583;28;20052;-82
2022/01/05 04:08:07;;;;;;;5.72;2.78;;;;;;;10.05;96.53;98324.81;5051386;28;20076;-82
2022/01/05 04:10:32;;;;;;;3.00;2.30;;;;;;;10.09;96.34;98323.38;5049950;28;20065;-82
2022/01/05 04:12:58;;;;;;;4.45;2.88;;;;;;;10.20;95.44;98320.84;5039186;28;20083;-82
2022/01/05 04:15:27;;;;;;;4.03;2.70;;;;;;;10.22;95.32;98315.59;5060214;28;20124;-82
2022/01/05 04:17:52;;;;;;;3.88;2.65;;;;;;;10.23;95.11;98316.38;5032986;28;20061;-82
2022/01/05 04:20:18;;;;;;;3.97;2.58;;;;;;;10.25;94.96;98311.88;5042243;28;20439;-82
2022/01/05 04:22:44;;;;;;;4.15;2.60;;;;;;;10.19;95.11;98311.00;5039602;28;20045;-82
2022/01/05 04:25:11;;;;;;;5.28;2.95;;;;;;;10.15;95.15;98320.75;5044238;28;20041;-84
2022/01/05 04:27:36;;;;;;;4.72;2.80;;;;;;;10.05;95.35;98314.50;5035198;28;20107;-84
2022/01/05 04:30:04;;;;;;;5.32;2.80;;;;;;;10.07;95.64;98314.03;5031965;28;20447;-84
2022/01/05 04:32:30;;;;;;;4.75;3.38;;;;;;;10.09;95.77;98315.06;5039698;28;20037;-84
2022/01/05 04:34:55;;;;;;;4.80;3.55;;;;;;;10.08;96.03;98323.84;5050329;28;20047;-85
2022/01/05 04:37:22;;;;;;;7.07;3.03;;;;;;;10.14;95.87;98321.97;5036145;28;20029;-84
2022/01/05 04:39:47;;;;;;;6.22;2.95;;;;;;;10.16;95.87;98314.72;5031850;28;20033;-84
2022/01/05 04:42:13;;;;;;;3.83;2.53;;;;;;;10.22;95.69;98314.84;5046563;28;20055;-84
2022/01/05 04:44:41;;;;;;;4.78;2.75;;;;;;;10.24;95.26;98318.66;5048226;28;20044;-82
2022/01/05 04:47:08;;;;;;;4.63;2.67;;;;;;;10.18;95.71;98317.81;5033546;28;20045;-82
2022/01/05 04:49:33;;;;;;;5.07;3.25;;;;;;;10.22;95.53;98320.38;5036651;28;20137;-82
2022/01/05 04:51:59;;;;;;;4.90;3.25;;;;;;;10.20;95.69;98318.06;5022240;28;20108;-82
2022/01/05 04:54:24;;;;;;;5.72;3.33;;;;;;;10.20;95.66;98318.06;5030071;28;20041;-82
2022/01/05 04:56:50;;;;;;;4.70;2.95;;;;;;;10.13;95.80;98328.75;5013468;28;20072;-82
2022/01/05 04:59:15;;;;;;;6.30;3.10;;;;;;;10.14;95.97;98330.28;5040839;28;20037;-82
2022/01/05 05:01:41;;;;;;;4.22;2.85;;;;;;;10.17;95.80;98341.19;5037762;28;20029;-86
2022/01/05 05:04:07;;;;;;;5.03;2.78;;;;;;;10.09;96.22;98331.69;5030875;28;20053;-82
2022/01/05 05:06:32;;;;;;;6.57;3.00;;;;;;;10.14;96.06;98353.22;5069488;28;20397;-82
2022/01/05 05:08:58;;;;;;;4.78;2.95;;;;;;;10.11;96.17;98334.00;5053915;28;20021;-82
2022/01/05 05:11:23;;;;;;;4.70;2.75;;;;;;;10.13;96.03;98348.91;5048801;28;20037;-82
2022/01/05 05:13:49;;;;;;;8.30;4.40;;;;;;;10.11;96.26;98345.81;5049522;28;20029;-82
2022/01/05 05:16:14;;;;;;;6.07;3.50;;;;;;;10.10;96.54;98355.41;5049709;28;20037;-82
2022/01/05 05:18:39;;;;;;;6.88;3.58;;;;;;;9.99;96.35;98333.00;5049540;28;20086;-82
2022/01/05 05:21:05;;;;;;;5.78;3.47;;;;;;;10.00;96.53;98351.16;5047028;28;20051;-84
2022/01/05 05:23:31;;;;;;;6.80;3.70;;;;;;;9.97;96.53;98349.34;5047871;28;20033;-85
2022/01/05 05:25:56;;;;;;;5.25;3.50;;;;;;;9.99;96.88;98349.63;5066435;28;20054;-85
2022/01/05 05:28:22;;;;;;;5.72;3.65;;;;;;;9.94;96.88;98357.84;5061766;28;20069;-85
2022/01/05 05:30:48;;;;;;;7.22;3.72;;;;;;;9.84;97.33;98359.91;5044332;28;20163;-84
2022/01/05 05:33:14;;;;;;;5.53;3.67;;;;;;;9.76;97.56;98351.19;5030290;28;20111;-84
2022/01/05 05:35:41;;;;;;;6.00;3.33;;;;;;;9.73;98.03;98348.59;5044564;28;20511;-84
2022/01/05 05:38:07;;;;;;;5.57;3.67;;;;;;;9.76;98.03;98364.25;5041998;28;20047;-84
2022/01/05 05:40:32;;;;;;;5.30;3.50;;;;;;;9.72;98.17;98360.91;5037571;28;20486;-84
2022/01/05 05:42:58;;;;;;;6.10;3.15;;;;;;;9.69;98.71;98373.69;5043727;28;20025;-84
2022/01/05 05:45:23;;;;;;;7.60;3.55;;;;;;;9.63;98.43;98367.25;5034433;28;20450;-84
2022/01/05 05:47:49;;;;;;;9.68;5.63;;;;;;;9.59;98.95;98371.44;5032425;28;20044;-84
2022/01/05 05:50:14;;;;;;;11.90;7.32;;;;;;;9.59;99.51;98379.72;5031009;28;20039;-85
2022/01/05 05:52:40;;;;;;;14.23;7.72;;;;;;;9.66;99.00;98385.72;5031624;28;20109;-84
2022/01/05 05:55:06;;;;;;;11.73;6.68;;;;;;;9.67;99.25;98386.47;5042473;28;20033;-84
2022/01/05 05:57:31;;;;;;;10.25;5.90;;;;;;;9.68;98.77;98376.91;5042939;28;20029;-85
2022/01/05 05:59:57;;;;;;;8.20;5.47;;;;;;;9.73;98.39;98392.91;5027625;28;20041;-81
2022/01/05 06:02:22;;;;;;;9.73;4.65;;;;;;;9.79;98.69;98393.75;5040954;28;20040;-81
2022/01/05 06:04:48;;;;;;;8.02;4.30;;;;;;;9.77;98.46;98382.41;5037445;28;20558;-81
2022/01/05 06:07:13;;;;;;;8.70;4.50;;;;;;;9.79;98.67;98385.47;5037880;28;20029;-82
2022/01/05 06:09:39;;;;;;;7.10;4.22;;;;;;;9.83;98.08;98386.81;5030676;28;20037;-82
2022/01/05 06:12:05;;;;;;;6.00;3.67;;;;;;;9.79;98.48;98388.22;5034907;28;20041;-82
2022/01/05 06:14:30;;;;;;;6.28;3.97;;;;;;;9.83;98.41;98389.59;5035413;28;20124;-82
2022/01/05 06:16:56;;;;;;;5.70;3.88;;;;;;;9.72;98.40;98385.81;5036369;28;20030;-84
2022/01/05 06:19:21;;;;;;;7.00;4.05;;;;;;;9.73;98.45;98396.44;5034270;28;20053;-82
2022/01/05 06:21:50;;;;;;;7.32;4.13;;;;;;;9.68;98.89;98388.00;5038302;28;20406;-82
2022/01/05 06:24:16;;;;;;;6.88;4.53;;;;;;;9.69;98.58;98386.75;5035590;28;20028;-82
2022/01/05 06:26:42;;;;;;;5.85;3.47;;;;;;;9.66;99.10;98387.72;5052694;28;20037;-82
2022/01/05 06:29:08;;;;;;;5.40;3.60;;;;;;;9.65;99.04;98383.41;5065633;28;20844;-82
2022/01/05 06:31:34;;;;;;;7.22;3.92;;;;;;;9.63;98.87;98386.63;5043496;28;20033;-82
2022/01/05 06:33:59;;;;;;;8.93;4.25;;;;;;;9.63;99.30;98391.41;5031567;28;20203;-82
2022/01/05 06:36:25;;;;;;;7.03;4.22;;;;;;;9.60;99.40;98397.88;5032933;28;20063;-82
2022/01/05 06:38:50;;;;;;;5.28;4.13;;;;;;;9.60;99.19;98408.97;5041775;28;20411;-82
2022/01/05 06:41:16;;;;;;;8.88;5.25;;;;;;;9.53;99.82;98403.78;5022133;28;20394;-82
2022/01/05 06:43:41;;;;;;;8.35;4.35;;;;;;;9.50;100.00;98411.03;5034253;28;20471;-82
2022/01/05 06:46:07;;;;;;;7.57;4.68;;;;;;;9.50;100.00;98405.50;5024446;28;20030;-92
2022/01/05 06:48:32;;;;;;;8.68;4.57;;;;;;;9.55;100.00;98412.34;5031046;28;20041;-85
2022/01/05 06:50:58;;;;;;;6.88;4.47;;;;;;;9.54;100.00;98416.38;5033253;28;20034;-85
2022/01/05 06:53:24;;;;;;;6.20;4.20;;;;;;;9.53;100.00;98425.91;5032116;28;20038;-85
2022/01/05 06:55:49;;;;;;;6.15;3.78;;;;;;;9.56;100.00;98419.44;5033781;28;20033;-84
2022/01/05 06:58:15;;;;;;;6.88;4.00;;;;;;;9.64;99.94;98417.84;5026987;28;20033;-84
2022/01/05 07:00:40;;;;;;;5.78;3.88;;;;;;;9.66;99.73;98415.41;5031941;28;20087;-84
2022/01/05 07:03:06;;;;;;;6.40;3.60;;;;;;;9.71;99.16;98411.97;5029725;28;20056;-84
2022/01/05 07:05:31;;;;;;;9.02;4.00;;;;;;;9.75;98.91;98420.88;5029557;28;20518;-84
2022/01/05 07:07:57;;;;;;;8.00;4.22;;;;;;;9.77;98.92;98410.09;5030524;28;20029;-84
2022/01/05 07:10:23;;;;;;;7.38;5.03;;;;;;;9.82;98.90;98412.22;5029515;28;20046;-84
2022/01/05 07:12:48;;;;;;;8.35;4.25;;;;;;;9.88;98.81;98413.09;5013956;28;20033;-84
2022/01/05 07:15:17;;;;;;;7.85;4.60;;;;;;;9.89;98.44;98403.56;5029985;28;20541;-85
2022/01/05 07:17:42;;;;;;;9.15;4.53;;;;;;;9.89;98.44;98414.63;5032046;28;20045;-84
2022/01/05 07:20:09;;;;;;;9.38;4.10;;;;;;;9.89;98.35;98414.63;5031403;28;20017;-83
2022/01/05 07:22:36;;;;;;;8.07;4.00;;;;;;;9.91;98.21;98417.69;5031801;28;20449;-84
2022/01/05 07:25:02;;;;;;;6.20;3.83;;;;;;;9.94;98.39;98416.00;5015154;28;20446;-84
2022/01/05 07:27:27;;;;;;;6.60;3.75;;;;;;;9.98;98.07;98406.28;5032891;28;20065;-84
2022/01/05 07:29:53;;;;;;;8.25;3.80;;;;;;;10.03;97.87;98402.09;5015391;28;20033;-84
2022/01/05 07:32:19;;;;;;;6.72;4.10;;;;;;;10.00;98.25;98395.47;5031282;28;20026;-84
2022/01/05 07:34:45;;;;;;;7.35;3.90;;;;;;;10.04;98.18;98393.28;5031538;28;20072;-84
2022/01/05 07:37:10;;;;;;;8.07;3.58;;;;;;;10.15;97.72;98393.53;5031505;28;20390;-84
2022/01/05 07:39:37;;;;;;;7.07;4.30;;;;;;;10.16;97.59;98397.06;5031596;28;20049;-84
2022/01/05 07:42:03;;;;;;;8.25;4.50;;;;;;;10.18;97.23;98381.53;5032713;28;20094;-84
2022/01/05 07:44:29;;;;;;;8.23;4.28;;;;;;;10.23;97.43;98391.94;5052296;28;20033;-84
2022/01/05 07:46:54;;;;;;;10.68;3.88;;;;;;;10.25;97.13;98392.25;5034677;28;20036;-84
2022/01/05 07:49:20;;;;;;;6.22;3.60;;;;;;;10.28;97.06;98394.06;5051051;28;20398;-84
2022/01/05 07:51:45;;;;;;;5.25;3.72;;;;;;;10.28;97.29;98385.75;5018191;28;20122;-84
2022/01/05 07:54:11;;;;;;;5.93;4.00;;;;;;;10.37;96.79;98387.69;5052078;28;20102;-85
2022/01/05 07:56:37;;;;;;;7.25;4.20;;;;;;;10.38;96.68;98378.13;5052453;28;20438;-85
2022/01/05 07:59:03;;;;;;;8.02;4.43;;;;;;;10.41;96.54;98382.72;5051998;28;20091;-85
2022/01/05 08:01:29;;;;;;;6.22;3.78;;;;;;;10.38;96.51;98372.59;5050889;28;20451;-85
2022/01/05 08:03:54;;;;;;;6.93;4.00;;;;;;;10.40;96.45;98372.09;5052485;28;20033;-85
2022/01/05 08:06:21;;;;;;;7.35;3.92;;;;;;;10.49;96.66;98383.88;5051150;28;20436;-85
2022/01/05 08:08:47;;;;;;;8.20;3.80;;;;;;;10.56;96.10;98379.94;5051163;28;20041;-84
2022/01/05 08:11:13;;;;;;;8.60;3.42;;;;;;;10.57;96.47;98384.25;5049991;28;20028;-84
2022/01/05 08:13:38;;;;;;;5.85;3.83;;;;;;;10.61;95.97;98395.91;5051060;28;20071;-84
2022/01/05 08:16:04;;;;;;;6.10;4.15;;;;;;;10.63;95.95;98396.22;5034519;28;20068;-84
2022/01/05 08:18:30;;;;;;;11.07;4.60;;;;;;;10.63;95.92;98399.00;5030823;28;20028;-84
2022/01/05 08:20:55;;;;;;;6.40;4.28;;;;;;;10.56;95.79;98377.94;5014233;28;20045;-84
2022/01/05 08:23:22;;;;;;;7.82;4.03;;;;;;;10.62;95.99;98383.59;5030218;28;20037;-84
2022/01/05 08:25:49;;;;;;;6.28;3.95;;;;;;;10.70;95.66;98398.63;5013522;28;20041;-84
2022/01/05 08:28:15;;;;;;;7.55;4.53;;;;;;;10.75;96.02;98406.28;5031420;28;20467;-84
2022/01/05 08:30:44;;;;;;;6.00;4.22;;;;;;;10.73;95.64;98397.66;4997832;28;20048;-84
2022/01/05 08:33:10;;;;;;;5.68;4.20;;;;;;;10.76;95.43;98407.78;5030207;28;20045;-84
2022/01/05 08:35:36;;;;;;;8.40;4.75;;;;;;;10.72;95.95;98401.66;5014121;28;20041;-84
2022/01/05 08:38:02;;;;;;;7.85;4.88;;;;;;;10.75;95.74;98400.72;5013909;28;20037;-84
2022/01/05 08:40:28;;;;;;;7.57;4.72;;;;;;;10.79;95.37;98406.84;5029917;28;20033;-84
2022/01/05 08:42:55;;;;;;;8.30;4.53;;;;;;;10.82;95.87;98405.88;5030177;28;20053;-84
2022/01/05 08:45:21;;;;;;;6.50;4.03;;;;;;;10.85;95.59;98401.38;5013776;28;20049;-84
2022/01/05 08:47:49;;;;;;;9.35;4.60;;;;;;;10.86;95.84;98412.00;5030112;28;20033;-84
2022/01/05 08:50:16;;;;;;;7.47;4.65;;;;;;;10.88;96.64;98397.69;5030113;28;20397;-84
2022/01/05 08:52:42;;;;;;;11.32;6.75;;;;;;;10.90;96.49;98409.81;5013644;28;20423;-84
2022/01/05 08:55:08;;;;;;;16.58;9.52;;;;;;;10.88;96.34;98398.41;5013298;28;20025;-84
2022/01/05 08:57:34;;;;;;;15.88;8.80;;;;;;;10.95;95.65;98414.69;5013824;28;20483;-84
2022/01/05 08:59:59;;;;;;;17.88;9.80;;;;;;;10.95;95.17;98402.84;5013305;28;20021;-84
2022/01/05 09:02:25;;;;;;;18.65;10.52;;;;;;;10.99;95.08;98404.16;4997004;28;20305;-84
2022/01/05 09:04:52;;;;;;;20.17;10.60;;;;;;;11.02;94.83;98397.66;5031159;28;20026;-84
2022/01/05 09:07:20;;;;;;;20.40;10.13;;;;;;;11.09;95.17;98416.69;5013590;28;20075;-84
2022/01/05 09:09:46;;;;;;;18.42;9.63;;;;;;;11.14;95.52;98415.25;5031318;28;20080;-86
2022/01/05 09:12:12;;;;;;;19.60;11.13;;;;;;;11.06;95.33;98403.78;5029667;28;20124;-84
2022/01/05 09:14:39;;;;;;;21.98;12.73;;;;;;;11.18;95.03;98427.69;5029754;28;20057;-84
2022/01/05 09:17:05;;;;;;;20.73;10.38;;;;;;;11.21;95.34;98429.50;4997123;28;20026;-84
2022/01/05 09:19:31;;;;;;;12.65;7.30;;;;;;;11.23;95.05;98434.59;5029591;28;20479;-84
2022/01/05 09:21:56;;;;;;;11.88;6.90;;;;;;;11.18;95.64;98438.78;5029704;28;20091;-84
2022/01/05 09:24:22;;;;;;;10.93;6.30;;;;;;;11.09;95.93;98429.78;5013049;28;20041;-84
2022/01/05 09:26:48;;;;;;;8.15;5.60;;;;;;;11.03;96.44;98435.25;5013320;28;20042;-84
2022/01/05 09:29:13;;;;;;;7.70;4.70;;;;;;;11.07;95.23;98446.94;5029547;28;20546;-85
2022/01/05 09:31:39;;;;;;;8.25;5.00;;;;;;;11.07;95.96;98443.41;5029803;28;20057;-85
2022/01/05 09:34:05;;;;;;;9.25;5.85;;;;;;;11.09;95.15;98446.44;5029483;28;20028;-85
2022/01/05 09:36:40;;;;;;;8.80;5.80;;;;;;;11.04;95.18;98441.59;5030766;28;20121;-85
2022/01/05 09:42:05;;;;;;;8.60;5.70;;;;;;;10.99;95.15;98454.09;5035116;28;20046;-85
2022/01/05 09:44:38;;;;;;;7.88;5.35;;;;;;;10.84;95.15;98433.91;5034663;28;20037;-85
2022/01/05 09:47:33;;;;;;;7.22;4.43;;;;;;;10.73;94.33;98459.44;5034877;28;20124;-85
2022/01/05 09:50:06;;;;;;;7.53;3.75;;;;;;;10.52;92.34;98462.53;5034906;28;20120;-84
2022/01/05 09:52:33;;;;;;;4.85;3.10;;;;;;;10.35;93.40;98455.91;5033382;28;20064;-84
2022/01/05 09:54:58;;;;;;;3.85;2.47;;;;;;;10.16;93.05;98475.44;5034589;28;20045;-84
2022/01/05 09:57:24;;;;;;;3.92;2.97;;;;;;;10.04;92.98;98468.09;5034578;28;20029;-84
2022/01/05 09:59:51;;;;;;;5.10;2.80;;;;;;;10.00;93.58;98475.81;5033050;28;20487;-84
2022/01/05 10:02:18;;;;;;;7.43;2.92;;;;;;;9.88;93.69;98468.50;5033097;28;20517;-84
2022/01/05 10:04:46;;;;;;;4.35;2.70;;;;;;;9.86;94.95;98486.81;5034263;28;20104;-84
2022/01/05 10:07:13;;;;;;;4.00;2.40;;;;;;;9.70;95.08;98485.22;5033252;28;20030;-85
2022/01/05 10:09:42;;;;;;;3.08;2.15;;;;;;;9.51;94.76;98467.13;5034324;28;20029;-84
2022/01/05 10:12:09;;;;;;;2.70;2.00;;;;;;;9.45;95.64;98485.59;5049242;28;20390;-84
2022/01/05 10:14:38;;;;;;;4.22;2.22;;;;;;;9.34;95.55;98483.34;5032958;28;20031;-84
2022/01/05 10:17:06;;;;;;;2.65;2.05;;;;;;;9.28;96.87;98483.19;5032826;28;20060;-83
2022/01/05 10:19:33;;;;;;;4.70;2.63;;;;;;;9.19;96.70;98494.28;5032571;28;20025;-84
2022/01/05 10:21:59;;;;;;;7.43;4.30;;;;;;;9.09;97.45;98484.47;5033956;28;20049;-84
2022/01/05 10:24:46;;;;;;;4.05;2.83;;;;;;;9.02;98.11;98492.34;5034004;28;20056;-84
2022/01/05 10:27:16;;;;;;;4.22;2.70;;;;;;;8.98;98.22;98491.72;5033889;28;20083;-84
2022/01/05 10:30:10;;;;;;;4.40;3.00;;;;;;;8.92;98.69;98499.09;5016162;28;20124;-84
2022/01/05 10:32:36;;;;;;;4.32;2.55;;;;;;;8.82;99.02;98503.84;5033012;28;20033;-85
2022/01/05 10:35:13;;;;;;;4.57;3.00;;;;;;;8.82;99.22;98507.41;5016228;28;20498;-84
2022/01/05 10:37:44;;;;;;;3.47;2.42;;;;;;;8.70;100.00;98516.63;5032588;28;20033;-84
2022/01/05 10:40:19;;;;;;;4.68;3.10;;;;;;;8.66;100.00;98518.00;5035810;28;20103;-85
2022/01/05 10:42:51;;;;;;;3.97;2.40;;;;;;;8.53;100.00;98512.63;5052372;28;20147;-84
2022/01/05 10:45:19;;;;;;;5.68;3.20;;;;;;;8.50;100.00;98523.81;5052126;28;20043;-84
2022/01/05 10:48:03;;;;;;;7.88;4.45;;;;;;;8.32;100.00;98536.41;5053803;28;20474;-84
2022/01/05 10:50:29;;;;;;;5.72;3.38;;;;;;;8.21;100.00;98533.25;5052825;28;20456;-84
2022/01/05 10:52:56;;;;;;;4.93;2.80;;;;;;;8.11;100.00;98530.94;5052237;28;20021;-84
2022/01/05 10:55:24;;;;;;;4.32;1.85;;;;;;;7.98;100.00;98529.06;5053007;28;20274;-84
2022/01/05 10:58:06;;;;;;;2.63;1.90;;;;;;;7.94;100.00;98522.94;5035722;28;20029;-84
2022/01/05 11:00:43;;;;;;;4.10;2.67;;;;;;;7.89;100.00;98531.03;5035386;28;20052;-83
2022/01/05 11:03:26;;;;;;;3.00;2.10;;;;;;;7.81;100.00;98529.78;5051754;28;20041;-83
2022/01/05 11:06:03;;;;;;;2.83;1.98;;;;;;;7.73;100.00;98556.13;5052176;28;20040;-83
2022/01/05 11:08:46;;;;;;;4.88;2.00;;;;;;;7.68;100.00;98576.03;5053011;28;20120;-83
2022/01/05 11:11:36;;;;;;;3.15;1.80;;;;;;;7.59;100.00;98556.69;5039096;28;20041;-83
2022/01/05 11:14:04;;;;;;;2.85;1.80;;;;;;;7.55;100.00;98556.03;5033172;28;20039;-84
2022/01/05 11:16:30;;;;;;;2.92;1.70;;;;;;;7.44;100.00;98584.03;5032939;28;20041;-83
2022/01/05 11:19:14;;;;;;;3.17;2.28;;;;;;;7.38;100.00;98603.16;5031697;28;20037;-84
2022/01/05 11:21:54;;;;;;;3.47;2.17;;;;;;;7.26;100.00;98598.47;5033128;28;20046;-83
2022/01/05 11:24:20;;;;;;;2.65;1.65;;;;;;;7.13;100.00;98578.47;5031555;28;20038;-83
2022/01/05 11:26:45;;;;;;;3.00;1.63;;;;;;;7.07;100.00;98594.06;5036783;28;20025;-84
2022/01/05 11:29:11;;;;;;;4.30;2.85;;;;;;;7.03;100.00;98610.72;5031598;28;20368;-83
2022/01/05 11:31:36;;;;;;;3.33;1.80;;;;;;;6.96;100.00;98605.44;5015129;28;20060;-83
2022/01/05 11:34:02;;;;;;;5.15;1.80;;;;;;;6.83;100.00;98590.19;5015181;28;20083;-83
2022/01/05 11:36:27;;;;;;;2.45;1.63;;;;;;;6.75;100.00;98594.41;5031402;28;20101;-83
2022/01/05 11:38:54;;;;;;;2.33;1.50;;;;;;;6.70;100.00;98626.03;5031627;28;20398;-84
2022/01/05 11:41:20;;;;;;;3.50;1.80;;;;;;;6.68;100.00;98628.47;5031278;28;20038;-83